sensor_id;sensor_type;location;lat;lon;timestamp;P1;durP1;ratioP1;P2;durP2;ratioP2
25359;SDS011;13311;51.386;0.016;2023-02-28T00:04:33;13.65;;;3.60;;
25359;SDS011;13311;51.386;0.016;2023-02-28T00:09:33;8.90;;;3.20;;
25359;SDS011;13311;51.386;0.016;2023-02-28T00:14:34;7.38;;;3.05;;
25359;SDS011;13311;51.386;0.016;2023-02-28T00:19:35;10.43;;;3.38;;
25359;SDS011;13311;51.386;0.016;2023-02-28T00:24:36;7.90;;;2.95;;
25359;SDS011;13311;51.386;0.016;2023-02-28T00:29:37;7.78;;;2.83;;
25359;SDS011;13311;51.386;0.016;2023-02-28T00:34:38;7.38;;;3.58;;
25359;SDS011;13311;51.386;0.016;2023-02-28T00:39:39;7.50;;;2.72;;
25359;SDS011;13311;51.386;0.016;2023-02-28T00:44:40;8.25;;;3.40;;
25359;SDS011;13311;51.386;0.016;2023-02-28T00:49:41;9.95;;;2.72;;
25359;SDS011;13311;51.386;0.016;2023-02-28T00:54:42;6.65;;;3.20;;
25359;SDS011;13311;51.386;0.016;2023-02-28T00:59:43;7.10;;;3.28;;
25359;SDS011;13311;51.386;0.016;2023-02-28T01:04:44;9.63;;;3.78;;
25359;SDS011;13311;51.386;0.016;2023-02-28T01:09:44;8.65;;;3.22;;
25359;SDS011;13311;51.386;0.016;2023-02-28T01:14:45;10.70;;;4.60;;
25359;SDS011;13311;51.386;0.016;2023-02-28T01:19:46;13.05;;;3.40;;
25359;SDS011;13311;51.386;0.016;2023-02-28T01:24:47;9.55;;;3.33;;
25359;SDS011;13311;51.386;0.016;2023-02-28T01:29:48;9.70;;;2.67;;
25359;SDS011;13311;51.386;0.016;2023-02-28T01:34:48;11.07;;;2.90;;
25359;SDS011;13311;51.386;0.016;2023-02-28T01:39:49;10.93;;;3.65;;
25359;SDS011;13311;51.386;0.016;2023-02-28T01:50:31;8.60;;;3.13;;
25359;SDS011;13311;51.386;0.016;2023-02-28T01:55:40;9.93;;;3.17;;
25359;SDS011;13311;51.386;0.016;2023-02-28T02:00:42;7.05;;;2.65;;
25359;SDS011;13311;51.386;0.016;2023-02-28T02:05:43;7.85;;;3.08;;
25359;SDS011;13311;51.386;0.016;2023-02-28T02:10:51;9.40;;;3.25;;
25359;SDS011;13311;51.386;0.016;2023-02-28T02:48:59;8.90;;;3.20;;
25359;SDS011;13311;51.386;0.016;2023-02-28T02:54:05;9.60;;;2.90;;
25359;SDS011;13311;51.386;0.016;2023-02-28T02:59:18;10.30;;;3.22;;
25359;SDS011;13311;51.386;0.016;2023-02-28T03:04:23;12.40;;;3.78;;
25359;SDS011;13311;51.386;0.016;2023-02-28T03:09:32;9.63;;;3.60;;
25359;SDS011;13311;51.386;0.016;2023-02-28T03:25:56;6.13;;;2.60;;
25359;SDS011;13311;51.386;0.016;2023-02-28T03:31:19;6.55;;;3.05;;
25359;SDS011;13311;51.386;0.016;2023-02-28T03:36:38;8.60;;;3.03;;
25359;SDS011;13311;51.386;0.016;2023-02-28T03:41:52;12.25;;;4.68;;
25359;SDS011;13311;51.386;0.016;2023-02-28T03:47:03;7.75;;;3.80;;
25359;SDS011;13311;51.386;0.016;2023-02-28T03:52:12;6.93;;;3.17;;
25359;SDS011;13311;51.386;0.016;2023-02-28T03:57:37;9.23;;;2.55;;
25359;SDS011;13311;51.386;0.016;2023-02-28T04:03:19;8.50;;;2.80;;
25359;SDS011;13311;51.386;0.016;2023-02-28T04:08:20;5.50;;;3.03;;
25359;SDS011;13311;51.386;0.016;2023-02-28T04:13:21;8.38;;;3.53;;
25359;SDS011;13311;51.386;0.016;2023-02-28T04:18:22;11.50;;;3.58;;
25359;SDS011;13311;51.386;0.016;2023-02-28T04:23:23;12.15;;;3.60;;
25359;SDS011;13311;51.386;0.016;2023-02-28T04:28:24;11.60;;;3.67;;
25359;SDS011;13311;51.386;0.016;2023-02-28T04:33:26;7.55;;;3.28;;
25359;SDS011;13311;51.386;0.016;2023-02-28T04:38:27;6.32;;;2.65;;
25359;SDS011;13311;51.386;0.016;2023-02-28T04:48:37;10.75;;;3.35;;
25359;SDS011;13311;51.386;0.016;2023-02-28T04:53:40;10.73;;;3.17;;
25359;SDS011;13311;51.386;0.016;2023-02-28T04:58:42;7.15;;;3.70;;
25359;SDS011;13311;51.386;0.016;2023-02-28T05:03:43;9.38;;;3.53;;
25359;SDS011;13311;51.386;0.016;2023-02-28T05:08:44;11.80;;;3.28;;
25359;SDS011;13311;51.386;0.016;2023-02-28T05:13:45;6.93;;;3.10;;
25359;SDS011;13311;51.386;0.016;2023-02-28T05:18:46;15.88;;;3.20;;
25359;SDS011;13311;51.386;0.016;2023-02-28T05:23:47;9.07;;;4.13;;
25359;SDS011;13311;51.386;0.016;2023-02-28T05:28:48;6.97;;;4.03;;
25359;SDS011;13311;51.386;0.016;2023-02-28T05:33:49;12.77;;;3.50;;
25359;SDS011;13311;51.386;0.016;2023-02-28T05:38:50;5.32;;;3.38;;
25359;SDS011;13311;51.386;0.016;2023-02-28T05:43:51;17.33;;;3.80;;
25359;SDS011;13311;51.386;0.016;2023-02-28T05:48:52;10.43;;;3.92;;
25359;SDS011;13311;51.386;0.016;2023-02-28T05:53:52;10.10;;;3.83;;
25359;SDS011;13311;51.386;0.016;2023-02-28T05:58:53;10.75;;;4.18;;
25359;SDS011;13311;51.386;0.016;2023-02-28T06:03:54;15.25;;;4.25;;
25359;SDS011;13311;51.386;0.016;2023-02-28T06:08:55;11.32;;;4.25;;
25359;SDS011;13311;51.386;0.016;2023-02-28T06:13:57;12.23;;;4.22;;
25359;SDS011;13311;51.386;0.016;2023-02-28T06:19:01;8.32;;;4.68;;
25359;SDS011;13311;51.386;0.016;2023-02-28T06:24:03;11.50;;;4.82;;
25359;SDS011;13311;51.386;0.016;2023-02-28T06:29:05;10.88;;;5.50;;
25359;SDS011;13311;51.386;0.016;2023-02-28T06:34:06;15.10;;;5.70;;
25359;SDS011;13311;51.386;0.016;2023-02-28T06:39:07;12.05;;;5.40;;
25359;SDS011;13311;51.386;0.016;2023-02-28T06:44:12;16.70;;;6.72;;
25359;SDS011;13311;51.386;0.016;2023-02-28T06:49:17;11.18;;;6.57;;
25359;SDS011;13311;51.386;0.016;2023-02-28T06:54:17;10.40;;;5.45;;
25359;SDS011;13311;51.386;0.016;2023-02-28T06:59:18;13.60;;;6.57;;
25359;SDS011;13311;51.386;0.016;2023-02-28T07:04:19;10.45;;;6.30;;
25359;SDS011;13311;51.386;0.016;2023-02-28T07:09:19;13.13;;;6.45;;
25359;SDS011;13311;51.386;0.016;2023-02-28T07:14:20;12.20;;;6.40;;
25359;SDS011;13311;51.386;0.016;2023-02-28T07:19:22;11.45;;;6.80;;
25359;SDS011;13311;51.386;0.016;2023-02-28T07:24:22;12.60;;;7.57;;
25359;SDS011;13311;51.386;0.016;2023-02-28T07:29:25;12.15;;;6.57;;
25359;SDS011;13311;51.386;0.016;2023-02-28T07:34:26;12.82;;;6.95;;
25359;SDS011;13311;51.386;0.016;2023-02-28T07:39:27;11.80;;;6.35;;
25359;SDS011;13311;51.386;0.016;2023-02-28T07:44:28;13.52;;;7.28;;
25359;SDS011;13311;51.386;0.016;2023-02-28T07:49:28;12.55;;;6.43;;
25359;SDS011;13311;51.386;0.016;2023-02-28T07:54:29;11.52;;;6.70;;
25359;SDS011;13311;51.386;0.016;2023-02-28T07:59:30;11.88;;;5.97;;
25359;SDS011;13311;51.386;0.016;2023-02-28T08:04:31;10.45;;;6.80;;
25359;SDS011;13311;51.386;0.016;2023-02-28T08:09:33;12.50;;;5.63;;
25359;SDS011;13311;51.386;0.016;2023-02-28T08:14:34;10.75;;;6.00;;
25359;SDS011;13311;51.386;0.016;2023-02-28T08:19:35;9.13;;;5.15;;
25359;SDS011;13311;51.386;0.016;2023-02-28T08:24:36;7.85;;;5.32;;
25359;SDS011;13311;51.386;0.016;2023-02-28T08:29:38;9.50;;;5.63;;
25359;SDS011;13311;51.386;0.016;2023-02-28T08:34:39;10.05;;;4.90;;
25359;SDS011;13311;51.386;0.016;2023-02-28T08:39:40;8.90;;;4.82;;
25359;SDS011;13311;51.386;0.016;2023-02-28T08:44:41;9.60;;;4.22;;
25359;SDS011;13311;51.386;0.016;2023-02-28T08:49:41;6.53;;;4.43;;
25359;SDS011;13311;51.386;0.016;2023-02-28T08:54:42;9.20;;;3.88;;
25359;SDS011;13311;51.386;0.016;2023-02-28T08:59:43;8.43;;;3.35;;
25359;SDS011;13311;51.386;0.016;2023-02-28T09:04:43;7.78;;;4.20;;
25359;SDS011;13311;51.386;0.016;2023-02-28T09:09:45;5.35;;;3.28;;
25359;SDS011;13311;51.386;0.016;2023-02-28T09:14:54;9.25;;;3.75;;
25359;SDS011;13311;51.386;0.016;2023-02-28T09:19:55;7.85;;;2.92;;
25359;SDS011;13311;51.386;0.016;2023-02-28T09:24:55;9.75;;;3.10;;
25359;SDS011;13311;51.386;0.016;2023-02-28T09:29:56;8.82;;;2.95;;
25359;SDS011;13311;51.386;0.016;2023-02-28T09:34:57;7.00;;;2.50;;
25359;SDS011;13311;51.386;0.016;2023-02-28T09:39:58;5.45;;;2.90;;
25359;SDS011;13311;51.386;0.016;2023-02-28T09:45:02;6.15;;;2.47;;
25359;SDS011;13311;51.386;0.016;2023-02-28T09:55:30;9.45;;;2.38;;
25359;SDS011;13311;51.386;0.016;2023-02-28T10:00:39;18.60;;;4.30;;
25359;SDS011;13311;51.386;0.016;2023-02-28T10:06:27;9.32;;;2.50;;
25359;SDS011;13311;51.386;0.016;2023-02-28T10:11:17;7.32;;;3.70;;
25359;SDS011;13311;51.386;0.016;2023-02-28T10:22:11;10.82;;;3.80;;
25359;SDS011;13311;51.386;0.016;2023-02-28T10:27:16;20.58;;;4.63;;
25359;SDS011;13311;51.386;0.016;2023-02-28T10:32:27;7.82;;;2.90;;
25359;SDS011;13311;51.386;0.016;2023-02-28T10:37:31;8.13;;;2.00;;
25359;SDS011;13311;51.386;0.016;2023-02-28T10:42:32;12.00;;;2.40;;
25359;SDS011;13311;51.386;0.016;2023-02-28T10:47:34;8.70;;;1.67;;
25359;SDS011;13311;51.386;0.016;2023-02-28T10:53:05;8.35;;;2.20;;
25359;SDS011;13311;51.386;0.016;2023-02-28T10:58:25;12.38;;;2.03;;
25359;SDS011;13311;51.386;0.016;2023-02-28T11:03:33;5.03;;;1.70;;
25359;SDS011;13311;51.386;0.016;2023-02-28T11:08:35;7.03;;;2.58;;
25359;SDS011;13311;51.386;0.016;2023-02-28T11:13:58;7.35;;;2.10;;
25359;SDS011;13311;51.386;0.016;2023-02-28T11:19:06;5.53;;;2.13;;
25359;SDS011;13311;51.386;0.016;2023-02-28T11:24:23;5.57;;;1.75;;
25359;SDS011;13311;51.386;0.016;2023-02-28T11:29:32;1.85;;;1.58;;
25359;SDS011;13311;51.386;0.016;2023-02-28T11:34:35;6.57;;;1.98;;
25359;SDS011;13311;51.386;0.016;2023-02-28T11:39:37;54.15;;;11.07;;
25359;SDS011;13311;51.386;0.016;2023-02-28T11:44:50;11.00;;;2.35;;
25359;SDS011;13311;51.386;0.016;2023-02-28T11:55:35;5.88;;;2.42;;
25359;SDS011;13311;51.386;0.016;2023-02-28T12:11:35;3.30;;;2.35;;
25359;SDS011;13311;51.386;0.016;2023-02-28T12:22:21;6.95;;;2.67;;
25359;SDS011;13311;51.386;0.016;2023-02-28T12:27:56;4.95;;;2.58;;
25359;SDS011;13311;51.386;0.016;2023-02-28T12:33:08;3.92;;;2.67;;
25359;SDS011;13311;51.386;0.016;2023-02-28T12:38:13;3.03;;;2.38;;
25359;SDS011;13311;51.386;0.016;2023-02-28T12:43:21;3.25;;;2.40;;
25359;SDS011;13311;51.386;0.016;2023-02-28T12:48:37;4.55;;;3.28;;
25359;SDS011;13311;51.386;0.016;2023-02-28T12:59:06;6.28;;;2.17;;
25359;SDS011;13311;51.386;0.016;2023-02-28T13:04:28;2.40;;;1.92;;
25359;SDS011;13311;51.386;0.016;2023-02-28T13:10:02;4.45;;;2.05;;
25359;SDS011;13311;51.386;0.016;2023-02-28T13:15:08;4.40;;;2.05;;
25359;SDS011;13311;51.386;0.016;2023-02-28T13:20:31;4.85;;;2.17;;
25359;SDS011;13311;51.386;0.016;2023-02-28T13:46:38;4.78;;;2.63;;
25359;SDS011;13311;51.386;0.016;2023-02-28T13:57:30;4.38;;;2.33;;
25359;SDS011;13311;51.386;0.016;2023-02-28T14:02:40;4.28;;;2.10;;
25359;SDS011;13311;51.386;0.016;2023-02-28T14:08:21;2.88;;;1.70;;
25359;SDS011;13311;51.386;0.016;2023-02-28T14:18:51;4.03;;;1.80;;
25359;SDS011;13311;51.386;0.016;2023-02-28T14:29:28;1.85;;;1.30;;
25359;SDS011;13311;51.386;0.016;2023-02-28T14:40:16;3.50;;;1.70;;
25359;SDS011;13311;51.386;0.016;2023-02-28T14:45:23;3.60;;;1.85;;
25359;SDS011;13311;51.386;0.016;2023-02-28T14:50:27;3.20;;;1.90;;
25359;SDS011;13311;51.386;0.016;2023-02-28T14:55:34;4.20;;;2.23;;
25359;SDS011;13311;51.386;0.016;2023-02-28T15:00:36;6.18;;;2.28;;
25359;SDS011;13311;51.386;0.016;2023-02-28T15:05:57;2.42;;;1.80;;
25359;SDS011;13311;51.386;0.016;2023-02-28T15:11:02;1.90;;;1.58;;
25359;SDS011;13311;51.386;0.016;2023-02-28T15:16:08;3.22;;;1.80;;
25359;SDS011;13311;51.386;0.016;2023-02-28T15:21:26;4.13;;;1.63;;
25359;SDS011;13311;51.386;0.016;2023-02-28T15:26:35;3.10;;;1.52;;
25359;SDS011;13311;51.386;0.016;2023-02-28T15:31:42;2.75;;;1.40;;
25359;SDS011;13311;51.386;0.016;2023-02-28T15:36:46;3.28;;;1.23;;
25359;SDS011;13311;51.386;0.016;2023-02-28T15:41:47;3.25;;;1.23;;
25359;SDS011;13311;51.386;0.016;2023-02-28T15:47:22;4.40;;;0.93;;
25359;SDS011;13311;51.386;0.016;2023-02-28T15:52:33;2.65;;;1.10;;
25359;SDS011;13311;51.386;0.016;2023-02-28T15:57:42;1.95;;;1.40;;
25359;SDS011;13311;51.386;0.016;2023-02-28T16:02:45;3.15;;;1.50;;
25359;SDS011;13311;51.386;0.016;2023-02-28T16:07:47;5.82;;;2.45;;
25359;SDS011;13311;51.386;0.016;2023-02-28T16:12:48;2.42;;;1.25;;
25359;SDS011;13311;51.386;0.016;2023-02-28T16:17:49;2.10;;;1.63;;
25359;SDS011;13311;51.386;0.016;2023-02-28T16:22:50;1.88;;;1.50;;
25359;SDS011;13311;51.386;0.016;2023-02-28T16:27:52;1.52;;;1.42;;
25359;SDS011;13311;51.386;0.016;2023-02-28T16:32:54;4.28;;;2.55;;
25359;SDS011;13311;51.386;0.016;2023-02-28T16:37:55;3.22;;;1.70;;
25359;SDS011;13311;51.386;0.016;2023-02-28T16:42:57;4.72;;;1.42;;
25359;SDS011;13311;51.386;0.016;2023-02-28T16:47:59;2.95;;;1.30;;
25359;SDS011;13311;51.386;0.016;2023-02-28T16:53:00;4.32;;;1.60;;
25359;SDS011;13311;51.386;0.016;2023-02-28T16:58:01;1.88;;;1.27;;
25359;SDS011;13311;51.386;0.016;2023-02-28T17:03:02;3.67;;;1.52;;
25359;SDS011;13311;51.386;0.016;2023-02-28T17:08:03;5.07;;;2.03;;
25359;SDS011;13311;51.386;0.016;2023-02-28T17:13:05;2.78;;;1.80;;
25359;SDS011;13311;51.386;0.016;2023-02-28T17:18:08;4.28;;;2.17;;
25359;SDS011;13311;51.386;0.016;2023-02-28T17:23:18;3.13;;;1.77;;
25359;SDS011;13311;51.386;0.016;2023-02-28T17:28:20;2.58;;;1.38;;
25359;SDS011;13311;51.386;0.016;2023-02-28T17:33:21;1.90;;;1.52;;
25359;SDS011;13311;51.386;0.016;2023-02-28T17:38:22;1.52;;;1.10;;
25359;SDS011;13311;51.386;0.016;2023-02-28T17:43:24;1.27;;;0.95;;
25359;SDS011;13311;51.386;0.016;2023-02-28T17:48:26;2.90;;;1.20;;
25359;SDS011;13311;51.386;0.016;2023-02-28T17:53:27;2.92;;;1.60;;
25359;SDS011;13311;51.386;0.016;2023-02-28T17:58:28;3.45;;;2.10;;
25359;SDS011;13311;51.386;0.016;2023-02-28T18:03:35;2.20;;;1.67;;
25359;SDS011;13311;51.386;0.016;2023-02-28T18:08:36;2.05;;;1.60;;
25359;SDS011;13311;51.386;0.016;2023-02-28T18:13:37;3.30;;;2.10;;
25359;SDS011;13311;51.386;0.016;2023-02-28T18:18:37;2.88;;;2.08;;
25359;SDS011;13311;51.386;0.016;2023-02-28T18:23:38;2.75;;;1.70;;
25359;SDS011;13311;51.386;0.016;2023-02-28T18:28:46;5.45;;;3.22;;
25359;SDS011;13311;51.386;0.016;2023-02-28T18:33:48;5.07;;;2.10;;
25359;SDS011;13311;51.386;0.016;2023-02-28T18:38:51;3.47;;;2.67;;
25359;SDS011;13311;51.386;0.016;2023-02-28T18:43:51;2.05;;;1.60;;
25359;SDS011;13311;51.386;0.016;2023-02-28T18:48:53;2.28;;;1.90;;
25359;SDS011;13311;51.386;0.016;2023-02-28T18:53:53;2.30;;;1.80;;
25359;SDS011;13311;51.386;0.016;2023-02-28T18:58:55;3.65;;;1.73;;
25359;SDS011;13311;51.386;0.016;2023-02-28T19:03:56;10.20;;;3.42;;
25359;SDS011;13311;51.386;0.016;2023-02-28T19:09:02;3.92;;;3.08;;
25359;SDS011;13311;51.386;0.016;2023-02-28T19:14:03;3.50;;;2.20;;
25359;SDS011;13311;51.386;0.016;2023-02-28T19:19:04;6.60;;;1.92;;
25359;SDS011;13311;51.386;0.016;2023-02-28T19:24:04;4.68;;;2.60;;
25359;SDS011;13311;51.386;0.016;2023-02-28T19:29:05;2.78;;;1.85;;
25359;SDS011;13311;51.386;0.016;2023-02-28T19:34:06;6.43;;;1.90;;
25359;SDS011;13311;51.386;0.016;2023-02-28T19:39:07;2.35;;;1.80;;
25359;SDS011;13311;51.386;0.016;2023-02-28T19:44:07;6.35;;;3.83;;
25359;SDS011;13311;51.386;0.016;2023-02-28T19:49:08;4.95;;;2.40;;
25359;SDS011;13311;51.386;0.016;2023-02-28T19:54:09;4.20;;;2.50;;
25359;SDS011;13311;51.386;0.016;2023-02-28T19:59:09;3.95;;;2.70;;
25359;SDS011;13311;51.386;0.016;2023-02-28T20:04:10;2.97;;;2.13;;
25359;SDS011;13311;51.386;0.016;2023-02-28T20:09:14;3.40;;;2.50;;
25359;SDS011;13311;51.386;0.016;2023-02-28T20:14:15;2.30;;;1.77;;
25359;SDS011;13311;51.386;0.016;2023-02-28T20:19:16;3.97;;;2.20;;
25359;SDS011;13311;51.386;0.016;2023-02-28T20:24:17;5.30;;;3.45;;
25359;SDS011;13311;51.386;0.016;2023-02-28T20:29:22;6.07;;;5.25;;
25359;SDS011;13311;51.386;0.016;2023-02-28T20:34:23;12.73;;;7.20;;
25359;SDS011;13311;51.386;0.016;2023-02-28T20:39:24;9.95;;;8.13;;
25359;SDS011;13311;51.386;0.016;2023-02-28T20:44:25;11.57;;;8.45;;
25359;SDS011;13311;51.386;0.016;2023-02-28T20:49:25;13.18;;;10.05;;
25359;SDS011;13311;51.386;0.016;2023-02-28T20:54:26;17.05;;;10.45;;
25359;SDS011;13311;51.386;0.016;2023-02-28T20:59:29;14.10;;;9.68;;
25359;SDS011;13311;51.386;0.016;2023-02-28T21:04:30;13.77;;;8.98;;
25359;SDS011;13311;51.386;0.016;2023-02-28T21:09:31;12.98;;;8.73;;
25359;SDS011;13311;51.386;0.016;2023-02-28T21:14:32;11.60;;;7.75;;
25359;SDS011;13311;51.386;0.016;2023-02-28T21:19:33;11.85;;;8.95;;
25359;SDS011;13311;51.386;0.016;2023-02-28T21:24:33;14.65;;;9.77;;
25359;SDS011;13311;51.386;0.016;2023-02-28T21:29:40;14.30;;;8.75;;
25359;SDS011;13311;51.386;0.016;2023-02-28T21:34:41;12.68;;;8.52;;
25359;SDS011;13311;51.386;0.016;2023-02-28T21:39:41;9.13;;;7.25;;
25359;SDS011;13311;51.386;0.016;2023-02-28T21:44:42;11.48;;;8.52;;
25359;SDS011;13311;51.386;0.016;2023-02-28T21:49:43;15.15;;;9.43;;
25359;SDS011;13311;51.386;0.016;2023-02-28T21:54:44;12.98;;;9.88;;
25359;SDS011;13311;51.386;0.016;2023-02-28T21:59:45;11.52;;;8.18;;
25359;SDS011;13311;51.386;0.016;2023-02-28T22:04:46;13.55;;;8.73;;
25359;SDS011;13311;51.386;0.016;2023-02-28T22:09:47;9.70;;;5.38;;
25359;SDS011;13311;51.386;0.016;2023-02-28T22:14:48;11.65;;;4.63;;
25359;SDS011;13311;51.386;0.016;2023-02-28T22:19:49;8.50;;;3.97;;
25359;SDS011;13311;51.386;0.016;2023-02-28T22:24:50;8.25;;;4.75;;
25359;SDS011;13311;51.386;0.016;2023-02-28T22:29:53;7.18;;;5.25;;
25359;SDS011;13311;51.386;0.016;2023-02-28T22:34:55;9.75;;;5.22;;
25359;SDS011;13311;51.386;0.016;2023-02-28T22:39:56;9.82;;;6.30;;
25359;SDS011;13311;51.386;0.016;2023-02-28T22:44:56;9.90;;;6.53;;
25359;SDS011;13311;51.386;0.016;2023-02-28T22:49:57;11.00;;;6.75;;
25359;SDS011;13311;51.386;0.016;2023-02-28T22:54:58;15.50;;;7.38;;
25359;SDS011;13311;51.386;0.016;2023-02-28T22:59:59;9.60;;;8.10;;
25359;SDS011;13311;51.386;0.016;2023-02-28T23:05:00;13.85;;;8.52;;
25359;SDS011;13311;51.386;0.016;2023-02-28T23:10:03;10.50;;;8.52;;
25359;SDS011;13311;51.386;0.016;2023-02-28T23:15:10;14.43;;;9.13;;
25359;SDS011;13311;51.386;0.016;2023-02-28T23:20:15;14.15;;;9.88;;
25359;SDS011;13311;51.386;0.016;2023-02-28T23:30:20;12.30;;;9.07;;
25359;SDS011;13311;51.386;0.016;2023-02-28T23:35:21;16.75;;;10.15;;
25359;SDS011;13311;51.386;0.016;2023-02-28T23:40:22;15.25;;;10.18;;
25359;SDS011;13311;51.386;0.016;2023-02-28T23:45:23;17.42;;;10.50;;
25359;SDS011;13311;51.386;0.016;2023-02-28T23:50:24;17.50;;;11.23;;
25359;SDS011;13311;51.386;0.016;2023-02-28T23:55:24;13.55;;;10.43;;
